Time;durP1;ratioP1;P1;durP2;ratioP2;P2;SDS_P1;SDS_P2;PMS_P1;PMS_P2;Temp;Humidity;BMP_temperature;BMP_pressure;BME280_temperature;BME280_humidity;BME280_pressure;Samples;Min_cycle;Max_cycle;Signal;HPM_P1;HPM_P2
2022/06/28 00:02:09;;;;;;;;;;;;;;;13.73;100.00;99076.00;5090452;28;19958;-80
2022/06/28 00:04:37;;;;;;;;;;;;;;;13.69;100.00;99068.91;5089344;28;20385;-80
2022/06/28 00:07:05;;;;;;;;;;;;;;;13.44;100.00;99071.59;5090244;28;19930;-80
2022/06/28 00:09:33;;;;;;;;;;;;;;;13.51;100.00;99065.81;5106327;28;19931;-80
2022/06/28 00:12:00;;;;;;;;;;;;;;;13.69;100.00;99080.91;5090308;28;20011;-80
2022/06/28 00:17:14;;;;;;;;;;;;;;;13.73;100.00;99072.38;5089954;28;20399;-80
2022/06/28 00:19:41;;;;;;;;;;;;;;;13.59;100.00;99075.59;5090144;28;19932;-80
2022/06/28 00:22:08;;;;;;;;;;;;;;;13.71;100.00;99077.66;5089989;28;19930;-81
2022/06/28 00:25:32;;;;;;;;;;;;;;;13.55;100.00;99069.28;5090410;28;19981;-80
2022/06/28 00:27:59;;;;;;;;;;;;;;;14.08;100.00;99060.91;5089104;28;20201;-80
2022/06/28 00:30:27;;;;;;;;;;;;;;;14.22;100.00;99063.28;5087165;28;19924;-81
2022/06/28 00:32:54;;;;;;;;;;;;;;;14.14;100.00;99067.56;5055962;28;20302;-81
2022/06/28 00:35:22;;;;;;;;;;;;;;;14.26;100.00;99058.38;5106010;28;19931;-81
2022/06/28 00:37:49;;;;;;;;;;;;;;;14.19;100.00;99060.59;5071982;28;20379;-81
2022/06/28 00:40:17;;;;;;;;;;;;;;;13.66;100.00;99069.78;5105790;28;19983;-81
2022/06/28 00:42:44;;;;;;;;;;;;;;;13.67;100.00;99074.16;5056086;28;19969;-81
2022/06/28 00:45:12;;;;;;;;;;;;;;;13.88;100.00;99065.94;5088810;28;19924;-81
2022/06/28 00:47:40;;;;;;;;;;;;;;;13.99;100.00;99057.19;5088809;28;19966;-81
2022/06/28 00:50:07;;;;;;;;;;;;;;;14.02;100.00;99064.72;5105677;28;19929;-81
2022/06/28 00:52:35;;;;;;;;;;;;;;;13.98;100.00;99064.03;5088751;28;19924;-80
2022/06/28 00:55:02;;;;;;;;;;;;;;;13.97;100.00;99062.44;5090123;28;19924;-81
2022/06/28 00:57:30;;;;;;;;;;;;;;;13.84;100.00;99075.69;5088518;28;20011;-81
2022/06/28 00:59:58;;;;;;;;;;;;;;;14.18;100.00;99073.06;5105556;28;19959;-81
2022/06/28 01:02:29;;;;;;;;;;;;;;;13.83;100.00;99076.91;5105296;28;19924;-81
2022/06/28 01:04:57;;;;;;;;;;;;;;;14.07;100.00;99067.75;5088056;28;19924;-81
2022/06/28 01:07:25;;;;;;;;;;;;;;;14.25;100.00;99070.06;5088140;28;19931;-81
2022/06/28 01:09:53;;;;;;;;;;;;;;;14.45;100.00;99065.00;5122385;27;19925;-81
2022/06/28 01:12:20;;;;;;;;;;;;;;;14.58;100.00;99062.22;5071969;28;19977;-81
2022/06/28 01:14:48;;;;;;;;;;;;;;;14.27;100.00;99059.94;5105412;28;19978;-81
2022/06/28 01:17:29;;;;;;;;;;;;;;;14.46;100.00;99070.19;5088364;28;19931;-81
2022/06/28 01:20:15;;;;;;;;;;;;;;;14.55;100.00;99074.34;5122294;27;19924;-81
2022/06/28 01:23:16;;;;;;;;;;;;;;;14.14;100.00;99061.94;5094056;28;19931;-81
2022/06/28 01:25:46;;;;;;;;;;;;;;;13.99;100.00;99060.00;5107925;28;19924;-81
2022/06/28 01:28:18;;;;;;;;;;;;;;;14.10;100.00;99068.91;5074736;28;19924;-81
2022/06/28 01:30:49;;;;;;;;;;;;;;;14.41;100.00;99069.97;5074771;28;19930;-81
2022/06/28 01:33:23;;;;;;;;;;;;;;;14.46;100.00;99063.78;5075505;28;19924;-81
2022/06/28 01:35:53;;;;;;;;;;;;;;;14.48;100.00;99064.91;5066735;28;20429;-81
2022/06/28 01:38:22;;;;;;;;;;;;;;;14.57;100.00;99071.88;5077889;28;20378;-81
2022/06/28 01:40:50;;;;;;;;;;;;;;;14.97;100.00;99062.50;5060922;28;19928;-81
2022/06/28 01:43:19;;;;;;;;;;;;;;;14.74;100.00;99073.34;5094940;28;19931;-81
2022/06/28 01:45:50;;;;;;;;;;;;;;;14.88;100.00;99056.78;5061208;28;19924;-81
2022/06/28 01:48:19;;;;;;;;;;;;;;;14.66;100.00;99063.56;5060344;28;20367;-81
2022/06/28 01:50:58;;;;;;;;;;;;;;;14.66;100.00;99072.75;5077587;28;19928;-81
2022/06/28 01:53:26;;;;;;;;;;;;;;;14.80;100.00;99068.72;5077666;28;20019;-81
2022/06/28 01:56:00;;;;;;;;;;;;;;;14.82;100.00;99072.66;5077543;28;19924;-81
2022/06/28 01:58:48;;;;;;;;;;;;;;;14.14;100.00;99070.38;5093779;28;19924;-81
2022/06/28 02:01:15;;;;;;;;;;;;;;;14.61;100.00;99061.31;5076966;28;19977;-81
2022/06/28 02:03:45;;;;;;;;;;;;;;;14.60;100.00;99074.56;5094130;28;20345;-81
2022/06/28 02:06:36;;;;;;;;;;;;;;;14.54;100.00;99070.75;5076650;28;19969;-81
2022/06/28 02:09:08;;;;;;;;;;;;;;;14.29;100.00;99067.94;5077347;28;20010;-81
2022/06/28 02:11:45;;;;;;;;;;;;;;;14.47;100.00;99073.78;5077140;28;19928;-81
2022/06/28 02:14:15;;;;;;;;;;;;;;;14.66;100.00;99069.19;5060438;28;19924;-81
2022/06/28 02:16:43;;;;;;;;;;;;;;;14.74;100.00;99065.69;5077192;28;20361;-81
2022/06/28 02:19:11;;;;;;;;;;;;;;;13.97;100.00;99080.09;5060821;28;19924;-81
2022/06/28 02:21:40;;;;;;;;;;;;;;;14.57;100.00;99077.50;5077191;28;19955;-81
2022/06/28 02:24:08;;;;;;;;;;;;;;;14.58;100.00;99079.88;5093336;28;19924;-81
2022/06/28 02:26:37;;;;;;;;;;;;;;;14.90;100.00;99074.00;5076514;28;20314;-81
2022/06/28 02:29:07;;;;;;;;;;;;;;;14.22;100.00;99074.50;5060107;28;19934;-81
2022/06/28 02:31:36;;;;;;;;;;;;;;;14.50;100.00;99072.88;5093588;28;20030;-81
2022/06/28 02:34:04;;;;;;;;;;;;;;;13.69;100.00;99063.28;5093971;28;19924;-81
2022/06/28 02:41:51;;;;;;;;;;;;;;;14.30;100.00;99059.06;5092351;28;19928;-81
2022/06/28 02:44:19;;;;;;;;;;;;;;;14.95;100.00;99053.72;5075949;28;19924;-82
2022/06/28 02:46:47;;;;;;;;;;;;;;;14.06;100.00;99060.56;5059491;28;19930;-82
2022/06/28 02:49:15;;;;;;;;;;;;;;;14.61;100.00;99067.72;5076052;28;19928;-82
2022/06/28 02:51:43;;;;;;;;;;;;;;;14.55;100.00;99065.91;5076243;28;20367;-81
2022/06/28 02:54:11;;;;;;;;;;;;;;;13.98;100.00;99066.84;5076513;28;19924;-81
2022/06/28 02:56:40;;;;;;;;;;;;;;;13.98;100.00;99070.44;5076338;28;19924;-81
2022/06/28 02:59:08;;;;;;;;;;;;;;;13.86;100.00;99061.97;5076200;28;19924;-81
2022/06/28 03:01:36;;;;;;;;;;;;;;;13.75;100.00;99061.50;5092949;28;19954;-81
2022/06/28 03:04:05;;;;;;;;;;;;;;;13.55;100.00;99058.88;5059369;28;19932;-81
2022/06/28 03:06:35;;;;;;;;;;;;;;;13.77;100.00;99071.06;5060115;28;19934;-81
2022/06/28 03:09:10;;;;;;;;;;;;;;;14.35;100.00;99054.91;5077924;28;19931;-81
2022/06/28 03:11:38;;;;;;;;;;;;;;;14.26;100.00;99052.75;5092743;28;19924;-81
2022/06/28 03:14:08;;;;;;;;;;;;;;;14.44;100.00;99055.00;5059480;28;19950;-81
2022/06/28 03:16:36;;;;;;;;;;;;;;;14.28;100.00;99050.28;5076197;28;20026;-81
2022/06/28 03:19:03;;;;;;;;;;;;;;;14.22;100.00;99056.88;5094080;28;19947;-81
2022/06/28 03:21:31;;;;;;;;;;;;;;;14.00;100.00;99058.75;5076121;28;19923;-81
2022/06/28 03:23:58;;;;;;;;;;;;;;;13.49;100.00;99063.44;5058293;28;19924;-81
2022/06/28 03:26:26;;;;;;;;;;;;;;;13.30;100.00;99067.16;5075689;28;20011;-81
2022/06/28 03:28:54;;;;;;;;;;;;;;;14.13;100.00;99062.38;5059038;28;20333;-81
2022/06/28 03:31:22;;;;;;;;;;;;;;;14.50;100.00;99056.03;5075572;28;19931;-81
2022/06/28 03:33:50;;;;;;;;;;;;;;;14.65;100.00;99062.75;5058954;28;19962;-81
2022/06/28 03:36:18;;;;;;;;;;;;;;;14.94;100.00;99052.16;5059039;28;19931;-81
2022/06/28 03:38:47;;;;;;;;;;;;;;;15.08;100.00;99045.25;5075557;28;20306;-81
2022/06/28 03:41:22;;;;;;;;;;;;;;;15.21;100.00;99043.97;5060214;28;19924;-81
2022/06/28 03:43:57;;;;;;;;;;;;;;;14.90;100.00;99045.88;5058975;28;19925;-81
2022/06/28 03:46:25;;;;;;;;;;;;;;;14.86;100.00;99050.03;5059011;28;20026;-82
2022/06/28 03:49:04;;;;;;;;;;;;;;;14.46;100.00;99032.88;5059108;28;19931;-81
2022/06/28 03:51:50;;;;;;;;;;;;;;;13.39;100.00;99044.09;5075325;28;20379;-81
2022/06/28 03:54:26;;;;;;;;;;;;;;;13.98;100.00;99041.56;5043252;28;19928;-81
2022/06/28 03:57:17;;;;;;;;;;;;;;;14.63;100.00;99039.91;5064675;28;19935;-81
2022/06/28 03:59:45;;;;;;;;;;;;;;;14.76;100.00;99043.53;5074933;28;19924;-81
2022/06/28 04:02:13;;;;;;;;;;;;;;;14.66;100.00;99047.44;5058343;28;19931;-81
2022/06/28 04:04:40;;;;;;;;;;;;;;;14.77;100.00;99036.66;5058817;28;19924;-81
2022/06/28 04:07:10;;;;;;;;;;;;;;;13.83;100.00;99041.19;5075301;28;19970;-81
2022/06/28 04:09:37;;;;;;;;;;;;;;;14.02;100.00;99031.00;5075126;28;19924;-81
2022/06/28 04:12:08;;;;;;;;;;;;;;;14.25;100.00;99028.69;5059304;28;19954;-81
2022/06/28 04:14:36;;;;;;;;;;;;;;;14.29;100.00;99040.63;5092044;28;19975;-81
2022/06/28 04:17:04;;;;;;;;;;;;;;;14.72;100.00;99028.81;5092144;28;19956;-81
2022/06/28 04:20:00;;;;;;;;;;;;;;;14.56;100.00;99034.53;5092495;28;19970;-81
2022/06/28 04:22:29;;;;;;;;;;;;;;;14.75;100.00;99041.16;5108402;28;19925;-81
2022/06/28 04:24:57;;;;;;;;;;;;;;;14.62;100.00;99027.09;5074757;28;20331;-82
2022/06/28 04:27:33;;;;;;;;;;;;;;;14.64;100.00;99021.03;5075054;28;19928;-81
2022/06/28 04:30:03;;;;;;;;;;;;;;;14.73;100.00;99021.94;5075045;28;20011;-81
2022/06/28 04:32:42;;;;;;;;;;;;;;;15.01;100.00;99017.38;5075020;28;20026;-82
2022/06/28 04:35:10;;;;;;;;;;;;;;;15.24;100.00;99014.13;5074980;28;19924;-81
2022/06/28 04:37:38;;;;;;;;;;;;;;;14.27;100.00;99025.44;5074689;28;20375;-81
2022/06/28 04:40:15;;;;;;;;;;;;;;;14.67;100.00;99020.94;5074683;28;19998;-81
2022/06/28 04:42:54;;;;;;;;;;;;;;;14.55;100.00;99004.88;5058540;28;20302;-81
2022/06/28 04:45:21;;;;;;;;;;;;;;;14.68;100.00;99005.63;5090934;28;19931;-81
2022/06/28 04:48:04;;;;;;;;;;;;;;;14.35;100.00;99004.31;5074276;28;19959;-81
2022/06/28 04:50:32;;;;;;;;;;;;;;;13.87;100.00;99005.34;5091940;28;19981;-81
2022/06/28 04:53:00;;;;;;;;;;;;;;;14.44;100.00;99007.22;5041510;28;20329;-81
2022/06/28 04:55:30;;;;;;;;;;;;;;;14.57;100.00;99001.59;5074553;28;19924;-81
2022/06/28 04:58:05;;;;;;;;;;;;;;;14.68;100.00;99005.63;5074799;28;19951;-81
2022/06/28 05:00:33;;;;;;;;;;;;;;;14.84;100.00;98999.88;5074573;28;19926;-81
2022/06/28 05:03:21;;;;;;;;;;;;;;;15.30;100.00;98995.41;5074847;28;20336;-81
2022/06/28 05:06:18;;;;;;;;;;;;;;;14.94;100.00;98983.84;5078749;28;19924;-81
2022/06/28 05:08:52;;;;;;;;;;;;;;;15.19;100.00;98983.78;5058063;28;19924;-81
2022/06/28 05:11:21;;;;;;;;;;;;;;;15.06;100.00;98980.19;5093434;28;19968;-81
2022/06/28 05:14:09;;;;;;;;;;;;;;;15.26;100.00;98980.69;5061881;28;20495;-82
2022/06/28 05:16:38;;;;;;;;;;;;;;;15.41;100.00;98971.31;5078570;28;19930;-82
2022/06/28 05:19:06;;;;;;;;;;;;;;;15.07;100.00;98964.91;5078317;28;20187;-82
2022/06/28 05:21:37;;;;;;;;;;;;;;;15.04;100.00;98977.06;5095503;28;20436;-82
2022/06/28 05:24:05;;;;;;;;;;;;;;;15.24;100.00;98975.53;5077418;28;19924;-82
2022/06/28 05:26:43;;;;;;;;;;;;;;;15.44;100.00;98984.47;5061262;28;19924;-82
2022/06/28 05:29:16;;;;;;;;;;;;;;;15.29;100.00;98982.59;5112122;28;20034;-81
2022/06/28 05:31:44;;;;;;;;;;;;;;;14.73;100.00;98976.94;5077891;28;20298;-81
2022/06/28 05:34:11;;;;;;;;;;;;;;;15.23;100.00;98979.59;5078057;28;19924;-81
2022/06/28 05:36:40;;;;;;;;;;;;;;;14.66;100.00;98967.94;5094641;28;20003;-82
2022/06/28 05:39:10;;;;;;;;;;;;;;;15.23;100.00;98968.31;5094597;28;19963;-82
2022/06/28 05:41:38;;;;;;;;;;;;;;;15.20;100.00;98969.25;5077733;28;19925;-82
2022/06/28 05:44:06;;;;;;;;;;;;;;;14.13;100.00;98975.28;5077912;28;19924;-81
2022/06/28 05:46:33;;;;;;;;;;;;;;;14.91;100.00;98968.66;5060586;28;19963;-82
2022/06/28 05:49:01;;;;;;;;;;;;;;;14.56;100.00;98978.31;5094617;28;19925;-82
2022/06/28 05:51:29;;;;;;;;;;;;;;;14.34;100.00;98978.22;5077475;28;19923;-81
2022/06/28 05:53:57;;;;;;;;;;;;;;;14.53;100.00;98979.22;5077486;28;19928;-81
2022/06/28 05:56:25;;;;;;;;;;;;;;;15.25;100.00;98965.81;5060632;28;19951;-81
2022/06/28 05:58:53;;;;;;;;;;;;;;;14.11;100.00;98960.91;5060495;28;19948;-81
2022/06/28 06:01:22;;;;;;;;;;;;;;;14.94;100.00;98976.19;5060668;28;20305;-81
2022/06/28 06:03:50;;;;;;;;;;;;;;;14.24;100.00;98981.38;5043681;28;20010;-81
2022/06/28 06:06:18;;;;;;;;;;;;;;;15.16;100.00;98979.81;5060558;28;19959;-81
2022/06/28 06:08:49;;;;;;;;;;;;;;;14.77;100.00;98971.97;5060373;28;19978;-82
2022/06/28 06:11:17;;;;;;;;;;;;;;;14.75;100.00;98980.09;5060379;28;19966;-82
2022/06/28 06:13:44;;;;;;;;;;;;;;;14.84;100.00;98968.13;5077505;28;20302;-81
2022/06/28 06:16:13;;;;;;;;;;;;;;;14.66;100.00;98963.09;5094232;28;19924;-81
2022/06/28 06:18:40;;;;;;;;;;;;;;;14.23;100.00;98968.53;5077162;28;19924;-81
2022/06/28 06:21:08;;;;;;;;;;;;;;;14.60;100.00;98966.94;5059636;28;20406;-81
2022/06/28 06:23:35;;;;;;;;;;;;;;;14.71;100.00;98970.97;5076867;28;20015;-81
2022/06/28 06:26:03;;;;;;;;;;;;;;;14.65;100.00;98972.78;5094915;28;19970;-81
2022/06/28 06:28:34;;;;;;;;;;;;;;;14.63;100.00;98975.25;5060182;28;19924;-81
2022/06/28 06:31:02;;;;;;;;;;;;;;;14.43;100.00;98972.69;5077011;28;20402;-81
2022/06/28 06:34:01;;;;;;;;;;;;;;;14.26;100.00;98973.28;5076509;28;19924;-81
2022/06/28 06:36:55;;;;;;;;;;;;;;;14.64;100.00;98971.22;5074297;28;19932;-81
2022/06/28 06:39:23;;;;;;;;;;;;;;;14.94;100.00;98956.50;5093635;28;19974;-79
2022/06/28 06:41:51;;;;;;;;;;;;;;;15.12;100.00;98973.53;5093390;28;19924;-79
2022/06/28 06:44:19;;;;;;;;;;;;;;;15.01;100.00;98975.94;5076637;28;19925;-79
2022/06/28 06:46:49;;;;;;;;;;;;;;;14.67;100.00;98975.94;5076348;28;19924;-79
2022/06/28 06:49:17;;;;;;;;;;;;;;;15.19;100.00;98973.28;5076586;28;19935;-79
2022/06/28 06:51:48;;;;;;;;;;;;;;;15.16;100.00;98971.38;5059562;28;19924;-79
2022/06/28 06:54:16;;;;;;;;;;;;;;;15.50;100.00;98964.94;5074711;28;19931;-79
2022/06/28 06:56:44;;;;;;;;;;;;;;;15.95;100.00;98963.19;5076378;28;19924;-79
2022/06/28 06:59:13;;;;;;;;;;;;;;;16.21;100.00;98963.78;5076076;28;20375;-79
2022/06/28 07:01:41;;;;;;;;;;;;;;;17.54;100.00;98963.72;5075988;28;19928;-79
2022/06/28 07:04:13;;;;;;;;;;;;;;;17.85;100.00;98950.16;5076223;28;19924;-79
2022/06/28 07:06:42;;;;;;;;;;;;;;;18.10;100.00;98948.97;5075882;28;19924;-80
2022/06/28 07:09:10;;;;;;;;;;;;;;;18.18;100.00;98932.44;5076207;28;19924;-80
2022/06/28 07:11:37;;;;;;;;;;;;;;;18.88;100.00;98935.38;5076015;28;20479;-80
2022/06/28 07:14:06;;;;;;;;;;;;;;;18.02;100.00;98944.94;5059172;28;19924;-80
2022/06/28 07:16:33;;;;;;;;;;;;;;;18.16;100.00;98946.28;5075933;28;19947;-80
2022/06/28 07:19:01;;;;;;;;;;;;;;;17.09;100.00;98949.59;5058935;28;19970;-80
2022/06/28 07:21:28;;;;;;;;;;;;;;;17.02;100.00;98951.94;5093712;28;19924;-80
2022/06/28 07:23:56;;;;;;;;;;;;;;;17.10;100.00;98956.03;5058726;28;19973;-82
2022/06/28 07:26:24;;;;;;;;;;;;;;;17.33;100.00;98953.34;5059320;28;19963;-82
2022/06/28 07:28:52;;;;;;;;;;;;;;;17.91;100.00;98930.50;5042597;28;19954;-82
2022/06/28 07:31:20;;;;;;;;;;;;;;;18.24;100.00;98939.81;5075450;28;19977;-81
2022/06/28 07:33:48;;;;;;;;;;;;;;;17.84;100.00;98931.63;5075035;28;20114;-81
2022/06/28 07:36:19;;;;;;;;;;;;;;;16.95;100.00;98949.44;5075872;28;19931;-80
2022/06/28 07:38:48;;;;;;;;;;;;;;;17.82;100.00;98925.69;5075529;28;20031;-80
2022/06/28 07:41:23;;;;;;;;;;;;;;;18.22;100.00;98933.84;5076573;28;19935;-80
2022/06/28 07:44:09;;;;;;;;;;;;;;;18.02;100.00;98933.63;5075419;28;20390;-80
2022/06/28 07:46:37;;;;;;;;;;;;;;;19.45;100.00;98936.81;5042073;28;19931;-81
2022/06/28 07:49:04;;;;;;;;;;;;;;;19.19;100.00;98927.25;5058532;28;20446;-80
2022/06/28 07:54:20;;;;;;;;;;;;;;;18.30;100.00;98925.78;5075462;28;19960;-80
2022/06/28 07:57:07;;;;;;;;;;;;;;;17.81;100.00;98923.34;5058935;28;19931;-83
2022/06/28 07:59:38;;;;;;;;;;;;;;;17.31;100.00;98938.16;5075243;28;19947;-80
2022/06/28 08:02:06;;;;;;;;;;;;;;;17.44;100.00;98931.09;5075190;28;19989;-81
2022/06/28 08:04:40;;;;;;;;;;;;;;;16.00;100.00;98920.34;5057923;28;20019;-82
2022/06/28 08:07:07;;;;;;;;;;;;;;;16.44;100.00;98931.47;5075133;28;20596;-81
2022/06/28 08:09:34;;;;;;;;;;;;;;;17.06;100.00;98938.44;5058493;28;20049;-81
2022/06/28 08:12:05;;;;;;;;;;;;;;;17.19;100.00;98913.69;5058979;28;20398;-81
2022/06/28 08:14:33;;;;;;;;;;;;;;;17.09;100.00;98920.56;5108730;28;19928;-81
2022/06/28 08:17:02;;;;;;;;;;;;;;;16.60;100.00;98934.03;5091987;28;19931;-81
2022/06/28 08:19:31;;;;;;;;;;;;;;;16.72;100.00;98924.63;5058122;28;19924;-81
2022/06/28 08:21:59;;;;;;;;;;;;;;;18.71;100.00;98931.41;5057993;28;20440;-82
2022/06/28 08:24:26;;;;;;;;;;;;;;;18.43;100.00;98921.53;5058279;28;20428;-82
2022/06/28 08:26:53;;;;;;;;;;;;;;;18.45;100.00;98929.53;5058233;28;20565;-81
2022/06/28 08:29:30;;;;;;;;;;;;;;;18.80;100.00;98917.19;5075688;28;19950;-81
2022/06/28 08:31:58;;;;;;;;;;;;;;;18.82;100.00;98919.53;5074933;28;19934;-82
2022/06/28 08:34:26;;;;;;;;;;;;;;;17.28;100.00;98927.78;5075012;28;19931;-79
2022/06/28 08:36:54;;;;;;;;;;;;;;;18.48;100.00;98915.19;5074918;28;20375;-80
2022/06/28 08:39:23;;;;;;;;;;;;;;;19.15;100.00;98909.69;5074311;28;19928;-80
2022/06/28 08:41:54;;;;;;;;;;;;;;;17.73;100.00;98910.78;5075053;28;19956;-80
2022/06/28 08:44:21;;;;;;;;;;;;;;;18.50;100.00;98909.06;5074775;28;19977;-80
2022/06/28 08:46:51;;;;;;;;;;;;;;;18.52;100.00;98901.66;5077670;28;19960;-80
2022/06/28 08:49:25;;;;;;;;;;;;;;;18.70;100.00;98907.22;5078891;28;20500;-80
2022/06/28 08:51:54;;;;;;;;;;;;;;;18.20;100.00;98916.56;5078508;28;19928;-80
2022/06/28 08:54:22;;;;;;;;;;;;;;;18.12;100.00;98925.88;5078426;28;20405;-80
2022/06/28 08:56:50;;;;;;;;;;;;;;;17.87;100.00;98910.13;5096742;28;20409;-80
2022/06/28 08:59:22;;;;;;;;;;;;;;;18.36;100.00;98907.69;5062294;28;19931;-80
2022/06/28 09:01:50;;;;;;;;;;;;;;;18.45;100.00;98902.00;5077788;28;19924;-80
2022/06/28 09:04:17;;;;;;;;;;;;;;;18.76;100.00;98888.31;5078412;28;20014;-80
2022/06/28 09:06:45;;;;;;;;;;;;;;;18.36;100.00;98884.31;5078638;28;19956;-80
2022/06/28 09:09:12;;;;;;;;;;;;;;;18.87;100.00;98882.84;5078377;28;20023;-80
2022/06/28 09:11:41;;;;;;;;;;;;;;;18.84;100.00;98877.38;5061319;28;19931;-80
2022/06/28 09:14:29;;;;;;;;;;;;;;;18.62;100.00;98897.50;5096411;28;19931;-80
2022/06/28 09:16:58;;;;;;;;;;;;;;;18.99;100.00;98872.53;5061481;28;20353;-80
2022/06/28 09:19:35;;;;;;;;;;;;;;;18.93;100.00;98885.81;5078634;28;19924;-80
2022/06/28 09:22:04;;;;;;;;;;;;;;;19.07;100.00;98888.66;5096304;28;20004;-85
2022/06/28 09:24:35;;;;;;;;;;;;;;;19.12;100.00;98878.72;5078074;28;20011;-85
2022/06/28 09:27:06;;;;;;;;;;;;;;;19.43;100.00;98885.50;5077958;28;19974;-85
2022/06/28 09:29:47;;;;;;;;;;;;;;;18.70;100.00;98878.13;5096184;28;19928;-85
2022/06/28 09:32:15;;;;;;;;;;;;;;;17.75;100.00;98882.84;5093694;28;19924;-85
2022/06/28 09:34:55;;;;;;;;;;;;;;;18.84;100.00;98872.50;5061186;28;19924;-85
2022/06/28 09:37:33;;;;;;;;;;;;;;;18.94;100.00;98870.38;5044909;28;19924;-85
2022/06/28 09:40:11;;;;;;;;;;;;;;;19.08;100.00;98859.09;5061607;28;19975;-85
2022/06/28 09:42:40;;;;;;;;;;;;;;;18.98;100.00;98870.97;5094975;28;19950;-85
2022/06/28 09:45:12;;;;;;;;;;;;;;;18.74;100.00;98864.56;5061982;28;20413;-85
2022/06/28 09:47:45;;;;;;;;;;;;;;;18.60;100.00;98857.59;5061008;28;19924;-84
2022/06/28 09:50:30;;;;;;;;;;;;;;;18.71;100.00;98852.16;5060981;28;20379;-83
2022/06/28 09:53:00;;;;;;;;;;;;;;;19.04;100.00;98852.81;5061961;28;19977;-86
2022/06/28 09:55:33;;;;;;;;;;;;;;;19.60;100.00;98848.97;5062731;28;19924;-84
2022/06/28 09:58:01;;;;;;;;;;;;;;;19.14;100.00;98857.16;5077052;28;19973;-83
2022/06/28 10:00:30;;;;;;;;;;;;;;;18.98;100.00;98849.09;5060389;28;19924;-83
2022/06/28 10:02:58;;;;;;;;;;;;;;;19.03;100.00;98851.28;5077424;28;19959;-82
2022/06/28 10:05:26;;;;;;;;;;;;;;;18.89;100.00;98846.34;5095418;28;19930;-82
2022/06/28 10:07:54;;;;;;;;;;;;;;;18.02;100.00;98846.00;5077305;28;19924;-82
2022/06/28 10:10:22;;;;;;;;;;;;;;;18.01;100.00;98841.56;5077295;28;19931;-82
2022/06/28 10:15:40;;;;;;;;;;;;;;;18.77;100.00;98846.59;5060740;28;20310;-82
2022/06/28 10:18:15;;;;;;;;;;;;;;;17.92;100.00;98858.56;5060579;28;19931;-81
2022/06/28 10:20:50;;;;;;;;;;;;;;;17.66;100.00;98834.84;5095082;28;20393;-81
2022/06/28 10:23:27;;;;;;;;;;;;;;;17.99;100.00;98841.28;5092993;28;19951;-81
2022/06/28 10:26:11;;;;;;;;;;;;;;;18.29;100.00;98856.34;5044636;28;20497;-82
2022/06/28 10:28:41;;;;;;;;;;;;;;;18.09;100.00;98844.84;5076747;28;19928;-82
2022/06/28 10:31:21;;;;;;;;;;;;;;;18.44;100.00;98837.44;5061143;28;20271;-82
2022/06/28 10:34:02;;;;;;;;;;;;;;;18.28;100.00;98829.34;5060040;28;20301;-82
2022/06/28 10:36:39;;;;;;;;;;;;;;;18.78;100.00;98834.03;5076858;28;19977;-81
2022/06/28 10:39:10;;;;;;;;;;;;;;;18.47;100.00;98836.47;5060209;28;19931;-81
2022/06/28 10:41:45;;;;;;;;;;;;;;;18.43;100.00;98831.00;5059904;28;19931;-83
2022/06/28 10:44:27;;;;;;;;;;;;;;;18.65;100.00;98837.13;5076458;28;20000;-83
2022/06/28 10:47:05;;;;;;;;;;;;;;;18.64;100.00;98826.28;5060474;28;19924;-83
2022/06/28 10:49:42;;;;;;;;;;;;;;;18.29;100.00;98836.56;5059582;28;19954;-82
2022/06/28 10:52:26;;;;;;;;;;;;;;;18.78;100.00;98831.97;5061692;28;19944;-79
2022/06/28 10:54:57;;;;;;;;;;;;;;;18.89;100.00;98818.03;5094365;28;19924;-80
2022/06/28 10:57:30;;;;;;;;;;;;;;;18.22;100.00;98823.56;5059734;28;19931;-83
2022/06/28 11:00:11;;;;;;;;;;;;;;;18.82;100.00;98807.13;5075978;28;19963;-85
2022/06/28 11:02:51;;;;;;;;;;;;;;;18.90;100.00;98808.28;5059866;28;20313;-86
2022/06/28 11:05:23;;;;;;;;;;;;;;;18.76;100.00;98814.72;5059920;28;19928;-87
2022/06/28 11:08:00;;;;;;;;;;;;;;;18.47;100.00;98803.31;5075426;28;20393;-81
2022/06/28 11:10:28;;;;;;;;;;;;;;;17.71;100.00;98809.53;5094165;28;19974;-86
2022/06/28 11:13:18;;;;;;;;;;;;;;;17.44;100.00;98808.84;5060104;28;19935;-83
2022/06/28 11:15:46;;;;;;;;;;;;;;;17.98;100.00;98810.69;5059157;28;20383;-78
2022/06/28 11:18:16;;;;;;;;;;;;;;;17.30;100.00;98789.72;5094095;28;19948;-85
2022/06/28 11:20:44;;;;;;;;;;;;;;;18.80;100.00;98806.00;5093092;28;20019;-86
2022/06/28 11:23:25;;;;;;;;;;;;;;;19.14;100.00;98803.34;5076349;28;19928;-86
2022/06/28 11:28:59;;;;;;;;;;;;;;;18.53;100.00;98812.69;5075764;28;19924;-86
2022/06/28 11:31:31;;;;;;;;;;;;;;;18.35;100.00;98820.50;5075758;28;19928;-85
2022/06/28 11:33:59;;;;;;;;;;;;;;;18.61;100.00;98813.09;5075785;28;19935;-85
2022/06/28 11:36:47;;;;;;;;;;;;;;;18.19;100.00;98815.25;5063687;28;19928;-84
2022/06/28 11:39:22;;;;;;;;;;;;;;;18.51;100.00;98795.41;5057790;28;19924;-84
2022/06/28 11:41:53;;;;;;;;;;;;;;;18.36;100.00;98803.03;5058360;28;19924;-83
2022/06/28 11:44:22;;;;;;;;;;;;;;;18.45;100.00;98794.50;5055801;28;19978;-83
2022/06/28 11:46:55;;;;;;;;;;;;;;;18.27;100.00;98794.63;5055590;28;20012;-84
2022/06/28 11:49:27;;;;;;;;;;;;;;;18.83;100.00;98783.19;5055629;28;19930;-84
2022/06/28 11:51:55;;;;;;;;;;;;;;;17.64;100.00;98789.31;5055927;28;19929;-91
2022/06/28 11:54:23;;;;;;;;;;;;;;;18.63;100.00;98788.72;5056109;28;19974;-91
2022/06/28 11:56:51;;;;;;;;;;;;;;;18.53;100.00;98789.28;5055911;28;19924;-91
2022/06/28 11:59:42;;;;;;;;;;;;;;;18.94;100.00;98794.72;5072825;28;19924;-92
2022/06/28 12:02:10;;;;;;;;;;;;;;;18.30;100.00;98799.31;5023019;28;19959;-92
2022/06/28 12:04:40;;;;;;;;;;;;;;;19.06;100.00;98785.16;5039021;28;19928;-90
2022/06/28 12:07:31;;;;;;;;;;;;;;;18.45;100.00;98794.50;5039743;28;20267;-91
2022/06/28 12:09:59;;;;;;;;;;;;;;;18.90;100.00;98791.28;5037736;28;19924;-90
2022/06/28 12:12:26;;;;;;;;;;;;;;;19.11;100.00;98784.50;5039412;28;19947;-90
2022/06/28 12:14:58;;;;;;;;;;;;;;;18.88;100.00;98785.34;5038566;28;19932;-90
2022/06/28 12:17:26;;;;;;;;;;;;;;;19.06;100.00;98793.66;5022604;28;19925;-90
2022/06/28 12:19:54;;;;;;;;;;;;;;;18.83;100.00;98797.34;5038813;28;19981;-91
2022/06/28 12:22:25;;;;;;;;;;;;;;;18.82;100.00;98798.63;5071873;28;19924;-89
2022/06/28 12:24:56;;;;;;;;;;;;;;;18.64;100.00;98795.94;5055301;28;19924;-89
2022/06/28 12:27:25;;;;;;;;;;;;;;;18.88;100.00;98793.84;5072065;28;20375;-90
2022/06/28 12:29:53;;;;;;;;;;;;;;;18.93;100.00;98779.00;5020797;28;20015;-90
2022/06/28 12:32:21;;;;;;;;;;;;;;;19.25;100.00;98777.28;5055015;28;19929;-90
2022/06/28 12:35:10;;;;;;;;;;;;;;;18.89;100.00;98786.91;5055341;28;19924;-90
2022/06/28 12:37:38;;;;;;;;;;;;;;;18.53;100.00;98792.88;5072082;28;20019;-90
2022/06/28 12:40:08;;;;;;;;;;;;;;;18.66;100.00;98786.97;5038528;28;20355;-90
2022/06/28 12:42:36;;;;;;;;;;;;;;;19.20;100.00;98775.91;5055561;28;19931;-90
2022/06/28 12:45:06;;;;;;;;;;;;;;;18.69;100.00;98755.63;5039060;28;19928;-90
2022/06/28 12:47:35;;;;;;;;;;;;;;;18.90;100.00;98785.63;5055281;28;19932;-91
2022/06/28 12:50:05;;;;;;;;;;;;;;;18.58;100.00;98778.09;5022305;28;20388;-90
2022/06/28 12:52:34;;;;;;;;;;;;;;;19.33;100.00;98773.56;5071504;28;19928;-90
2022/06/28 12:55:02;;;;;;;;;;;;;;;19.33;100.00;98773.56;5038565;28;19925;-90
2022/06/28 12:57:31;;;;;;;;;;;;;;;18.74;100.00;98777.63;5071866;28;20295;-91
2022/06/28 12:59:58;;;;;;;;;;;;;;;18.64;100.00;98776.16;5055329;28;19929;-90
2022/06/28 13:02:27;;;;;;;;;;;;;;;18.96;100.00;98757.44;5071787;28;19933;-89
2022/06/28 13:04:58;;;;;;;;;;;;;;;18.51;100.00;98780.50;5071347;28;19925;-89
2022/06/28 13:07:28;;;;;;;;;;;;;;;18.79;100.00;98779.78;5038622;28;20051;-90
2022/06/28 13:09:56;;;;;;;;;;;;;;;18.82;100.00;98747.66;5022125;28;19924;-90
2022/06/28 13:12:26;;;;;;;;;;;;;;;19.30;100.00;98757.56;5054443;28;20276;-90
2022/06/28 13:15:01;;;;;;;;;;;;;;;19.00;100.00;98747.50;5039140;28;19925;-90